createdAt,value
2023-04-23T00:00:34.255Z,24.75
2023-04-23T00:03:10.110Z,26.73
2023-04-23T00:05:38.005Z,25.92
2023-04-23T05:55:24.432Z,11.77
2023-04-23T05:57:51.692Z,11.63
2023-04-23T06:00:19.215Z,11.95
2023-04-23T06:02:46.448Z,12.35
2023-04-23T06:05:13.876Z,12.10
2023-04-23T06:07:41.564Z,12.30
2023-04-23T06:10:09.132Z,11.43
2023-04-23T06:12:39.339Z,11.80
2023-04-23T06:15:08.540Z,12.20
2023-04-23T06:17:36.607Z,11.60
2023-04-23T06:20:05.270Z,11.27
2023-04-23T06:22:32.838Z,11.13
2023-04-23T06:25:00.044Z,10.88
2023-04-23T06:27:27.281Z,11.82
2023-04-23T06:29:58.784Z,11.50
2023-04-23T06:32:25.930Z,11.68
2023-04-23T06:35:00.819Z,11.15
2023-04-23T06:37:30.980Z,11.23
2023-04-23T06:40:00.953Z,9.98
2023-04-23T06:42:28.143Z,10.57
2023-04-23T06:45:18.277Z,9.68
2023-04-23T06:47:45.749Z,9.85
2023-04-23T06:50:13.010Z,9.60
2023-04-23T06:52:40.510Z,10.40
2023-04-23T06:55:08.568Z,10.43
2023-04-23T06:57:36.240Z,10.18
2023-04-23T07:00:03.694Z,10.65
2023-04-23T07:02:36.904Z,10.40
2023-04-23T07:05:04.821Z,8.90
2023-04-23T07:07:32.672Z,9.75
2023-04-23T07:09:59.761Z,9.15
2023-04-23T07:12:26.976Z,9.85
2023-04-23T07:14:54.546Z,9.63
2023-04-23T07:17:21.890Z,10.20
2023-04-23T07:19:49.156Z,8.88
2023-04-23T07:22:16.338Z,9.57
2023-04-23T07:24:43.690Z,10.38
2023-04-23T07:27:11.119Z,10.30
2023-04-23T07:29:38.335Z,10.40
2023-04-23T07:32:05.444Z,9.60
2023-04-23T07:34:32.614Z,8.77
2023-04-23T07:36:59.882Z,10.13
2023-04-23T07:39:27.078Z,8.93
2023-04-23T07:41:54.344Z,8.50
2023-04-23T07:44:21.747Z,8.07
2023-04-23T07:46:48.925Z,8.52
2023-04-23T07:49:16.413Z,7.72
2023-04-23T07:51:43.671Z,8.00
2023-04-23T07:54:11.729Z,8.32
2023-04-23T07:56:39.231Z,8.55
2023-04-23T07:59:06.477Z,8.20
2023-04-23T08:01:34.469Z,7.50
2023-04-23T08:04:03.306Z,8.05
2023-04-23T08:06:31.504Z,7.57
2023-04-23T08:08:58.642Z,7.45
2023-04-23T08:11:25.799Z,6.25
2023-04-23T08:13:52.933Z,7.00
2023-04-23T08:16:20.100Z,5.90
2023-04-23T08:18:58.121Z,5.75
2023-04-23T08:21:34.957Z,5.88
2023-04-23T08:24:04.922Z,5.70
2023-04-23T08:26:32.147Z,5.82
2023-04-23T08:29:01.033Z,5.80
2023-04-23T08:31:28.482Z,5.68
2023-04-23T08:33:55.994Z,5.20
2023-04-23T08:36:25.598Z,5.55
2023-04-23T08:38:52.753Z,5.93
2023-04-23T08:41:24.713Z,5.03
2023-04-23T08:43:53.555Z,5.05
2023-04-23T08:46:23.190Z,4.60
2023-04-23T08:48:53.633Z,4.97
2023-04-23T08:51:24.157Z,5.65
2023-04-23T08:53:58.216Z,4.68
2023-04-23T08:58:54.186Z,4.70
2023-04-23T09:01:23.182Z,5.15
2023-04-23T09:03:51.829Z,4.72
2023-04-23T09:06:20.772Z,5.50
2023-04-23T09:08:48.103Z,5.00
2023-04-23T09:11:17.270Z,4.85
2023-04-23T09:13:44.394Z,5.05
2023-04-23T09:16:11.561Z,4.45
2023-04-23T09:18:39.784Z,4.32
2023-04-23T09:21:07.587Z,5.00
2023-04-23T09:23:34.913Z,5.25
2023-04-23T09:26:06.709Z,5.32
2023-04-23T09:28:38.852Z,5.13
2023-04-23T09:31:06.644Z,4.60
2023-04-23T09:33:36.389Z,4.97
2023-04-23T09:36:23.440Z,4.68
2023-04-23T09:38:51.232Z,4.75
2023-04-23T09:41:25.944Z,4.85
2023-04-23T09:43:57.187Z,5.15
2023-04-23T09:46:38.633Z,4.45
2023-04-23T09:49:10.666Z,5.35
2023-04-23T09:51:39.570Z,5.30
2023-04-23T09:54:19.070Z,4.50
2023-04-23T09:56:51.376Z,4.25
2023-04-23T09:59:29.331Z,5.28
2023-04-23T10:02:05.658Z,4.80
2023-04-23T10:04:33.465Z,4.88
2023-04-23T10:07:18.049Z,4.18
2023-04-23T10:09:47.882Z,4.35
2023-04-23T10:12:35.739Z,3.83
2023-04-23T10:15:06.061Z,4.05
2023-04-23T10:17:35.892Z,4.20
2023-04-23T10:20:04.151Z,4.50
2023-04-23T10:22:42.821Z,4.57
2023-04-23T10:25:11.683Z,4.53
2023-04-23T10:27:54.803Z,3.97
2023-04-23T10:30:23.133Z,4.70
2023-04-23T10:32:51.241Z,5.25
2023-04-23T10:35:18.434Z,4.57
2023-04-23T10:37:48.423Z,5.28
2023-04-23T10:40:24.165Z,4.55
2023-04-23T10:42:51.803Z,4.70
2023-04-23T10:47:50.468Z,4.53
2023-04-23T10:50:28.402Z,4.95
2023-04-23T10:52:57.876Z,4.38
2023-04-23T10:55:30.583Z,4.10
2023-04-23T10:58:08.516Z,4.18
2023-04-23T11:00:41.654Z,3.97
2023-04-23T11:03:43.368Z,3.97
2023-04-23T11:06:17.690Z,4.18
2023-04-23T11:08:55.246Z,5.50
2023-04-23T11:11:41.435Z,4.13
2023-04-23T11:14:14.608Z,4.88
2023-04-23T11:16:41.817Z,4.10
2023-04-23T11:19:12.795Z,4.13
2023-04-23T11:21:58.839Z,3.30
2023-04-23T11:24:31.557Z,3.60
2023-04-23T11:27:00.230Z,3.80
2023-04-23T11:29:29.208Z,3.42
2023-04-23T11:34:27.088Z,3.70
2023-04-23T11:37:00.891Z,3.40
2023-04-23T11:39:28.771Z,3.72
2023-04-23T11:41:57.167Z,3.50
2023-04-23T11:44:24.280Z,3.17
2023-04-23T11:46:51.485Z,3.35
2023-04-23T11:49:19.324Z,3.30
2023-04-23T11:51:47.166Z,3.28
2023-04-23T11:54:15.039Z,3.60
2023-04-23T11:56:42.638Z,3.20
2023-04-23T11:59:09.982Z,3.53
2023-04-23T12:01:44.777Z,3.83
2023-04-23T12:04:17.316Z,4.35
2023-04-23T12:06:46.507Z,4.68
2023-04-23T12:09:15.340Z,3.50
2023-04-23T12:11:44.018Z,3.42
2023-04-23T12:14:12.757Z,4.07
2023-04-23T12:16:41.152Z,3.40
2023-04-23T12:19:09.871Z,4.68
2023-04-23T12:21:54.096Z,12.75
2023-04-23T12:26:54.693Z,4.20
2023-04-23T12:29:23.401Z,4.88
2023-04-23T12:31:52.387Z,4.25
2023-04-23T12:34:22.650Z,4.03
2023-04-23T12:36:52.986Z,3.97
2023-04-23T12:39:32.036Z,4.70
2023-04-23T12:42:24.954Z,3.75
2023-04-23T12:44:52.356Z,4.28
2023-04-23T12:47:19.904Z,3.90
2023-04-23T12:49:49.775Z,3.97
2023-04-23T12:52:17.088Z,3.45
2023-04-23T12:54:45.087Z,3.97
2023-04-23T12:57:13.113Z,4.25
2023-04-23T12:59:40.465Z,3.75
2023-04-23T13:02:08.014Z,3.45
2023-04-23T13:04:36.688Z,4.13
2023-04-23T13:07:04.484Z,3.88
2023-04-23T13:09:31.859Z,4.00
2023-04-23T13:12:00.497Z,3.20
2023-04-23T13:14:31.521Z,3.25
2023-04-23T13:17:49.966Z,2.80
2023-04-23T13:20:19.968Z,2.60
2023-04-23T13:22:47.239Z,3.40
2023-04-23T13:25:14.319Z,3.08
2023-04-23T13:27:41.577Z,2.65
2023-04-23T13:30:09.249Z,2.63
2023-04-23T13:32:37.056Z,2.50
2023-04-23T13:35:05.380Z,2.55
2023-04-23T13:37:33.067Z,2.80
2023-04-23T13:40:00.389Z,3.22
2023-04-23T13:42:27.492Z,3.55
2023-04-23T13:44:54.610Z,3.78
2023-04-23T13:47:22.226Z,5.32
2023-04-23T13:49:49.318Z,3.88
2023-04-23T13:52:19.922Z,3.47
2023-04-23T13:54:51.055Z,3.80
2023-04-23T13:57:18.566Z,3.47
2023-04-23T13:59:46.319Z,4.00
2023-04-23T14:02:16.163Z,3.92
2023-04-23T14:04:44.402Z,3.75
2023-04-23T14:07:23.011Z,3.50
2023-04-23T14:09:52.918Z,4.15
2023-04-23T14:12:20.877Z,3.60
2023-04-23T14:14:49.627Z,3.15
2023-04-23T14:17:16.852Z,3.60
2023-04-23T14:19:44.374Z,3.45
2023-04-23T14:22:11.582Z,3.30
2023-04-23T14:25:01.763Z,3.53
2023-04-23T14:27:34.245Z,4.78
2023-04-23T14:30:06.893Z,3.30
2023-04-23T14:32:34.418Z,3.85
2023-04-23T14:35:03.257Z,3.42
2023-04-23T14:37:30.462Z,3.80
2023-04-23T14:39:57.532Z,4.10
2023-04-23T14:42:24.833Z,3.83
2023-04-23T14:44:56.822Z,4.05
2023-04-23T14:47:24.934Z,4.60
2023-04-23T14:49:52.110Z,4.00
2023-04-23T14:52:19.322Z,4.03
2023-04-23T14:54:46.583Z,5.00
2023-04-23T14:57:14.223Z,5.13
2023-04-23T14:59:41.644Z,4.43
2023-04-23T15:02:09.395Z,3.92
2023-04-23T15:04:36.741Z,3.55
2023-04-23T15:07:03.970Z,3.40
2023-04-23T15:09:31.200Z,3.50
2023-04-23T15:11:58.336Z,3.10
2023-04-23T15:14:33.288Z,3.13
2023-04-23T15:17:01.070Z,3.55
2023-04-23T15:19:31.196Z,3.35
2023-04-23T15:21:58.537Z,3.35
2023-04-23T15:24:25.676Z,3.65
2023-04-23T15:26:54.681Z,4.32
2023-04-23T15:29:24.528Z,4.20
2023-04-23T15:31:58.121Z,4.50
2023-04-23T15:34:25.688Z,4.40
2023-04-23T15:36:52.835Z,4.72
2023-04-23T15:39:19.872Z,4.05
2023-04-23T15:41:46.975Z,4.50
2023-04-23T15:44:14.094Z,4.70
2023-04-23T15:46:41.212Z,5.20
2023-04-23T15:49:08.461Z,5.43
2023-04-23T15:51:36.428Z,5.93
2023-04-23T15:54:05.996Z,5.88
2023-04-23T15:56:33.151Z,6.32
2023-04-23T15:59:00.301Z,6.30
2023-04-23T16:01:27.741Z,6.78
2023-04-23T16:04:09.405Z,6.70
2023-04-23T16:06:37.801Z,7.00
2023-04-23T16:09:08.426Z,6.68
2023-04-23T16:11:37.127Z,6.10
2023-04-23T16:14:05.353Z,5.63
2023-04-23T16:16:32.706Z,6.25
2023-04-23T16:19:00.111Z,6.78
2023-04-23T16:21:28.166Z,7.82
2023-04-23T16:23:55.379Z,7.00
2023-04-23T16:26:22.517Z,6.05
2023-04-23T16:28:52.102Z,6.28
2023-04-23T16:31:23.728Z,6.00
2023-04-23T16:33:50.963Z,5.78
2023-04-23T16:36:18.444Z,6.20
2023-04-23T16:38:49.204Z,5.32
2023-04-23T16:41:18.672Z,5.32
2023-04-23T16:43:49.518Z,6.45
2023-04-23T16:46:16.815Z,5.68
2023-04-23T16:48:45.264Z,5.60
2023-04-23T16:51:12.612Z,6.10
2023-04-23T16:53:40.133Z,5.72
2023-04-23T16:56:07.326Z,5.18
2023-04-23T16:58:36.223Z,5.05
2023-04-23T17:01:04.647Z,4.95
2023-04-23T17:03:33.629Z,5.15
2023-04-23T17:06:10.447Z,4.47
2023-04-23T17:08:38.550Z,5.15
2023-04-23T17:11:07.153Z,6.55
2023-04-23T17:13:35.056Z,5.63
2023-04-23T17:16:02.715Z,5.40
2023-04-23T17:18:30.235Z,5.70
2023-04-23T17:20:57.468Z,5.07
2023-04-23T17:23:24.596Z,5.53
2023-04-23T17:25:51.852Z,5.20
2023-04-23T17:28:20.339Z,4.80
2023-04-23T17:30:51.176Z,5.07
2023-04-23T17:33:18.462Z,4.85
2023-04-23T17:35:46.919Z,5.07
2023-04-23T17:38:14.216Z,4.90
2023-04-23T17:40:41.490Z,5.40
2023-04-23T17:43:08.579Z,30.55
2023-04-23T17:45:35.809Z,34.92
2023-04-23T17:48:03.142Z,56.88
2023-04-23T17:50:30.335Z,130.88
2023-04-23T17:52:57.562Z,100.22
2023-04-23T17:55:24.918Z,62.78
2023-04-23T17:57:52.332Z,39.50
2023-04-23T18:00:19.716Z,16.80
2023-04-23T18:02:47.193Z,10.98
2023-04-23T18:05:17.953Z,8.10
2023-04-23T18:07:45.221Z,6.00
2023-04-23T18:10:12.969Z,6.40
2023-04-23T18:12:40.314Z,5.70
2023-04-23T18:15:11.189Z,5.70
2023-04-23T18:17:38.972Z,5.07
2023-04-23T18:20:08.843Z,4.85
2023-04-23T18:22:38.308Z,4.70
2023-04-23T18:25:10.265Z,4.20
2023-04-23T18:27:37.951Z,4.00
2023-04-23T18:30:06.075Z,3.97
2023-04-23T18:32:41.732Z,3.58
2023-04-23T18:35:10.267Z,4.45
2023-04-23T18:38:02.564Z,3.78
2023-04-23T18:40:29.868Z,3.78
2023-04-23T18:42:57.178Z,3.50
2023-04-23T18:45:24.458Z,4.13
2023-04-23T18:48:12.709Z,3.35
2023-04-23T18:50:50.438Z,3.70
2023-04-23T18:53:18.728Z,3.80
2023-04-23T18:55:47.268Z,3.90
2023-04-23T18:58:14.470Z,3.80
2023-04-23T19:00:41.758Z,3.67
2023-04-23T19:03:23.647Z,3.60
2023-04-23T19:05:53.967Z,4.03
2023-04-23T19:08:22.861Z,3.80
2023-04-23T19:10:50.024Z,3.72
2023-04-23T19:13:18.870Z,4.22
2023-04-23T19:15:46.045Z,4.15
2023-04-23T19:18:13.382Z,4.65
2023-04-23T19:20:40.535Z,5.03
2023-04-23T19:23:09.233Z,5.50
2023-04-23T19:25:36.927Z,5.22
2023-04-23T19:28:04.111Z,6.15
2023-04-23T19:30:32.442Z,5.70
2023-04-23T19:32:59.868Z,6.00
2023-04-23T19:35:27.181Z,5.85
2023-04-23T19:37:54.632Z,7.03
2023-04-23T19:40:21.816Z,7.35
2023-04-23T19:42:49.071Z,6.60
2023-04-23T19:45:18.443Z,7.40
2023-04-23T19:47:45.757Z,5.93
2023-04-23T19:50:14.165Z,6.15
2023-04-23T19:52:41.507Z,11.48
2023-04-23T19:55:09.149Z,13.15
2023-04-23T19:57:36.860Z,16.35
2023-04-23T20:00:13.680Z,19.05
2023-04-23T20:02:41.874Z,17.30
2023-04-23T20:05:10.719Z,13.32
2023-04-23T20:07:39.343Z,8.45
2023-04-23T20:10:07.281Z,6.72
2023-04-23T20:12:35.598Z,5.80
2023-04-23T20:15:02.833Z,5.95
2023-04-23T20:17:30.243Z,6.15
2023-04-23T20:20:01.963Z,7.50
2023-04-23T20:22:29.975Z,7.55
2023-04-23T20:24:57.955Z,7.53
2023-04-23T20:27:26.522Z,7.30
2023-04-23T20:29:53.782Z,7.22
2023-04-23T20:32:21.081Z,8.00
2023-04-23T20:34:48.298Z,7.70
2023-04-23T20:37:15.580Z,8.77
2023-04-23T20:39:43.080Z,10.32
2023-04-23T20:42:10.474Z,11.82
2023-04-23T20:44:38.638Z,13.75
2023-04-23T20:47:08.567Z,13.80
2023-04-23T20:49:35.944Z,11.85
2023-04-23T20:52:03.143Z,11.55
2023-04-23T20:54:30.321Z,12.38
2023-04-23T20:56:57.759Z,10.77
2023-04-23T20:59:24.918Z,10.73
2023-04-23T21:01:52.195Z,10.07
2023-04-23T21:04:19.528Z,10.80
2023-04-23T21:06:51.172Z,10.35
2023-04-23T21:09:18.353Z,10.85
2023-04-23T21:11:45.597Z,11.45
2023-04-23T21:14:12.763Z,13.05
2023-04-23T21:16:39.916Z,14.68
2023-04-23T21:19:07.096Z,16.55
2023-04-23T21:21:34.276Z,18.63
2023-04-23T21:24:01.583Z,19.17
2023-04-23T21:26:30.661Z,19.63
2023-04-23T21:28:58.455Z,19.95
2023-04-23T21:31:57.822Z,20.30
2023-04-23T21:34:24.981Z,22.73
2023-04-23T21:36:52.044Z,22.10
2023-04-23T21:39:19.186Z,21.88
2023-04-23T21:41:47.364Z,20.30
2023-04-23T21:44:14.533Z,18.45
2023-04-23T21:46:43.357Z,17.83
2023-04-23T21:49:11.510Z,18.25
2023-04-23T21:51:41.494Z,17.70
2023-04-23T21:54:09.436Z,16.20
2023-04-23T21:56:36.698Z,14.18
2023-04-23T21:59:04.748Z,14.98
2023-04-23T22:01:34.283Z,13.38
2023-04-23T22:04:04.379Z,14.63
2023-04-23T22:06:31.707Z,13.65
2023-04-23T22:08:59.269Z,12.93
2023-04-23T22:11:26.453Z,13.15
2023-04-23T22:13:53.852Z,12.25
2023-04-23T22:16:28.622Z,12.20
2023-04-23T22:18:57.655Z,12.32
2023-04-23T22:21:24.886Z,12.43
2023-04-23T22:23:52.166Z,12.00
2023-04-23T22:26:19.329Z,12.10
2023-04-23T22:28:46.928Z,11.23
2023-04-23T22:31:14.040Z,11.57
2023-04-23T22:33:41.195Z,11.18
2023-04-23T22:36:08.444Z,12.35
2023-04-23T22:38:35.613Z,11.70
2023-04-23T22:41:02.979Z,11.90
2023-04-23T22:43:30.213Z,12.38
2023-04-23T22:45:57.463Z,11.88
2023-04-23T22:48:24.918Z,12.80
2023-04-23T22:50:52.728Z,13.02
2023-04-23T22:53:20.002Z,13.77
2023-04-23T22:55:47.512Z,13.40
2023-04-23T22:58:14.947Z,12.95
2023-04-23T23:00:42.161Z,13.45
2023-04-23T23:03:09.490Z,13.50
2023-04-23T23:05:36.827Z,13.70
2023-04-23T23:08:04.068Z,14.23
2023-04-23T23:10:31.812Z,14.25
2023-04-23T23:12:58.953Z,15.15
2023-04-23T23:15:26.054Z,14.98
2023-04-23T23:17:54.130Z,14.63
2023-04-23T23:20:21.512Z,15.57
2023-04-23T23:22:48.711Z,15.20
2023-04-23T23:25:16.298Z,14.75
2023-04-23T23:27:43.458Z,15.95
2023-04-23T23:30:10.898Z,16.63
2023-04-23T23:32:38.146Z,14.73
2023-04-23T23:35:06.635Z,16.08
2023-04-23T23:37:33.781Z,15.43
2023-04-23T23:40:00.954Z,16.17
2023-04-23T23:42:28.025Z,14.95
2023-04-23T23:44:55.191Z,15.65
2023-04-23T23:47:22.476Z,15.93
2023-04-23T23:49:49.808Z,16.23
2023-04-23T23:52:17.000Z,16.80
2023-04-23T23:54:44.106Z,19.50
2023-04-23T23:57:11.249Z,17.38
2023-04-23T23:59:38.393Z,18.60
